createdAt,value
2015-12-29T00:00:28.433Z,5.9
2015-12-29T00:01:27.388Z,5.9
2015-12-29T00:02:26.345Z,5.9
2015-12-29T00:03:25.315Z,5.9
2015-12-29T00:04:24.287Z,5.9
2015-12-29T00:05:23.305Z,5.9
2015-12-29T00:06:25.043Z,5.9
2015-12-29T00:07:23.764Z,5.9
2015-12-29T00:08:22.720Z,5.9
2015-12-29T00:09:21.692Z,5.8
2015-12-29T00:10:20.662Z,5.8
2015-12-29T00:12:18.590Z,5.8
2015-12-29T00:13:17.561Z,5.9
2015-12-29T00:14:16.533Z,5.8
2015-12-29T00:15:15.551Z,5.9
2015-12-29T00:16:17.289Z,5.9
2015-12-29T00:17:15.994Z,5.9
2015-12-29T00:18:14.700Z,5.9
2015-12-29T00:19:13.421Z,5.9
2015-12-29T00:20:12.127Z,5.9
2015-12-29T00:21:10.849Z,5.9
2015-12-29T00:22:09.555Z,5.9
2015-12-29T00:23:08.276Z,5.9
2015-12-29T00:24:06.982Z,5.9
2015-12-29T00:25:05.749Z,5.9
2015-12-29T00:26:07.471Z,5.9
2015-12-29T00:27:05.927Z,5.9
2015-12-29T00:28:04.649Z,5.9
2015-12-29T00:29:03.355Z,5.9
2015-12-29T00:30:01.810Z,5.9
2015-12-29T00:31:00.265Z,5.9
2015-12-29T00:31:58.721Z,5.9
2015-12-29T00:32:57.179Z,5.9
2015-12-29T00:33:55.633Z,5.9
2015-12-29T00:34:54.137Z,5.9
2015-12-29T00:35:55.890Z,5.9
2015-12-29T00:36:58.189Z,5.9
2015-12-29T00:38:00.472Z,5.9
2015-12-29T00:38:58.944Z,5.9
2015-12-29T00:39:57.384Z,5.9
2015-12-29T00:40:55.840Z,5.9
2015-12-29T00:41:54.296Z,5.9
2015-12-29T00:42:52.752Z,5.9
2015-12-29T00:43:51.208Z,5.9
2015-12-29T00:44:50.538Z,5.9
2015-12-29T00:45:56.648Z,5.9
2015-12-29T00:47:49.201Z,5.9
2015-12-29T00:48:47.865Z,5.9
2015-12-29T00:49:46.039Z,5.9
2015-12-29T00:50:44.745Z,5.9
2015-12-29T00:51:43.217Z,5.9
2015-12-29T00:52:45.517Z,5.9
2015-12-29T00:53:47.800Z,5.8
2015-12-29T00:54:46.319Z,5.8
2015-12-29T00:55:48.056Z,5.8
2015-12-29T00:56:50.357Z,5.8
2015-12-29T00:57:52.688Z,5.8
2015-12-29T00:58:54.957Z,5.9
2015-12-29T00:59:57.256Z,5.8
2015-12-29T01:00:59.555Z,5.8
2015-12-29T01:02:01.861Z,5.8
2015-12-29T01:03:04.149Z,5.9
2015-12-29T01:04:06.449Z,5.8
2015-12-29T01:05:08.811Z,5.8
2015-12-29T01:06:10.548Z,5.8
2015-12-29T01:07:12.582Z,5.8
2015-12-29T01:08:14.631Z,5.8
2015-12-29T01:09:16.931Z,5.8
2015-12-29T01:10:18.996Z,5.8
2015-12-29T01:11:21.014Z,5.8
2015-12-29T01:12:23.064Z,5.8
2015-12-29T01:13:25.364Z,5.8
2015-12-29T01:14:27.664Z,5.7
2015-12-29T01:15:30.025Z,5.8
2015-12-29T01:16:31.762Z,5.8
2015-12-29T01:17:33.797Z,5.8
2015-12-29T01:18:35.846Z,5.8
2015-12-29T01:19:37.895Z,5.8
2015-12-29T01:20:39.945Z,5.7
2015-12-29T01:21:41.979Z,5.7
2015-12-29T01:22:44.030Z,5.7
2015-12-29T01:23:46.080Z,5.7
2015-12-29T01:24:48.113Z,5.7
2015-12-29T01:25:50.226Z,5.7
2015-12-29T01:26:51.948Z,5.7
2015-12-29T01:27:53.981Z,5.7
2015-12-29T01:28:55.781Z,5.7
2015-12-29T01:29:57.831Z,5.7
2015-12-29T01:30:59.895Z,5.8
2015-12-29T01:32:01.914Z,5.7
2015-12-29T01:33:03.964Z,5.7
2015-12-29T01:34:06.012Z,5.7
2015-12-29T01:35:08.047Z,5.7
2015-12-29T01:36:10.158Z,5.7
2015-12-29T01:37:11.895Z,5.7
2015-12-29T01:38:14.195Z,5.7
2015-12-29T01:39:16.495Z,5.7
2015-12-29T01:40:18.795Z,5.7
2015-12-29T01:41:21.094Z,5.7
2015-12-29T01:42:23.394Z,5.7
2015-12-29T01:43:25.709Z,5.7
2015-12-29T01:44:28.009Z,5.7
2015-12-29T01:45:30.309Z,5.7
2015-12-29T01:46:32.670Z,5.7
2015-12-29T01:47:34.423Z,5.7
2015-12-29T01:48:36.442Z,5.7
2015-12-29T01:49:38.491Z,5.7
2015-12-29T01:50:40.525Z,5.7
2015-12-29T01:51:42.575Z,5.7
2015-12-29T01:52:44.625Z,5.7
2015-12-29T01:53:46.674Z,5.7
2015-12-29T01:54:48.724Z,5.7
2015-12-29T01:55:50.757Z,5.7
2015-12-29T01:56:52.605Z,5.7
2015-12-29T01:57:54.341Z,5.7
2015-12-29T01:58:56.375Z,5.7
2015-12-29T01:59:58.425Z,5.7
2015-12-29T02:01:00.475Z,5.7
2015-12-29T02:02:02.525Z,5.7
2015-12-29T02:03:04.574Z,5.7
2015-12-29T02:04:06.610Z,5.7
2015-12-29T02:05:08.661Z,5.7
2015-12-29T02:06:10.710Z,5.7
2015-12-29T02:07:12.807Z,5.7
2015-12-29T02:08:14.544Z,5.7
2015-12-29T02:09:16.577Z,5.7
2015-12-29T02:10:18.643Z,5.7
2015-12-29T02:11:20.677Z,5.7
2015-12-29T02:12:22.976Z,5.7
2015-12-29T02:13:25.260Z,5.7
2015-12-29T02:14:23.716Z,5.7
2015-12-29T02:15:22.438Z,5.7
2015-12-29T02:16:21.160Z,5.6
2015-12-29T02:17:20.175Z,5.6
2015-12-29T02:18:21.913Z,5.6
2015-12-29T02:19:21.134Z,5.6
2015-12-29T02:20:20.355Z,5.6
2015-12-29T02:21:19.593Z,5.6
2015-12-29T02:22:18.813Z,5.6
2015-12-29T02:23:18.035Z,5.6
2015-12-29T02:24:17.257Z,5.6
2015-12-29T02:25:16.478Z,5.6
2015-12-29T02:26:15.715Z,5.6
2015-12-29T02:27:14.999Z,5.6
2015-12-29T02:28:16.721Z,5.6
2015-12-29T02:29:15.957Z,5.6
2015-12-29T02:30:15.429Z,5.6
2015-12-29T02:31:14.915Z,5.5
2015-12-29T02:32:14.387Z,5.6
2015-12-29T02:33:14.125Z,5.5
2015-12-29T02:34:13.628Z,5.6
2015-12-29T02:35:13.349Z,5.5
2015-12-29T02:36:13.086Z,5.5
2015-12-29T02:37:12.886Z,5.5
2015-12-29T02:38:14.607Z,5.5
2015-12-29T02:39:14.360Z,5.5
2015-12-29T02:40:14.082Z,5.5
2015-12-29T02:41:13.834Z,5.5
2015-12-29T02:42:13.571Z,5.5
2015-12-29T02:43:13.309Z,5.5
2015-12-29T02:44:13.045Z,5.5
2015-12-29T02:45:12.783Z,5.5
2015-12-29T02:46:12.520Z,5.5
2015-12-29T02:47:12.304Z,5.5
2015-12-29T02:48:14.041Z,5.5
2015-12-29T02:49:13.778Z,5.5
2015-12-29T02:50:13.515Z,5.5
2015-12-29T02:51:13.518Z,5.5
2015-12-29T02:52:13.255Z,5.5
2015-12-29T02:53:12.992Z,5.5
2015-12-29T02:54:12.728Z,5.5
2015-12-29T02:55:12.466Z,5.5
2015-12-29T02:56:12.203Z,5.5
2015-12-29T02:57:11.987Z,5.5
2015-12-29T02:58:13.724Z,5.5
2015-12-29T02:59:13.462Z,5.4
2015-12-29T03:00:13.464Z,5.5
2015-12-29T03:01:13.202Z,5.4
2015-12-29T03:02:12.938Z,5.5
2015-12-29T03:03:12.425Z,5.5
2015-12-29T03:05:11.384Z,5.5
2015-12-29T03:06:11.121Z,5.5
2015-12-29T03:07:10.921Z,5.5
2015-12-29T03:08:12.642Z,5.5
2015-12-29T03:09:12.130Z,5.5
2015-12-29T03:10:11.349Z,5.5
2015-12-29T03:11:10.569Z,5.5
2015-12-29T03:12:09.807Z,5.5
2015-12-29T03:13:09.028Z,5.5
2015-12-29T03:14:08.250Z,5.5
2015-12-29T03:15:07.488Z,5.5
2015-12-29T03:16:06.708Z,5.5
2015-12-29T03:17:06.243Z,5.5
2015-12-29T03:18:07.979Z,5.5
2015-12-29T03:19:07.451Z,5.5
2015-12-29T03:20:06.938Z,5.5
2015-12-29T03:21:06.409Z,5.5
2015-12-29T03:22:06.163Z,5.5
2015-12-29T03:23:05.899Z,5.5
2015-12-29T03:24:05.637Z,5.5
2015-12-29T03:25:05.107Z,5.5
2015-12-29T03:26:04.595Z,5.5
2015-12-29T03:27:03.879Z,5.5
2015-12-29T03:28:05.601Z,5.5
2015-12-29T03:29:05.087Z,5.5
2015-12-29T03:30:04.574Z,5.5
2015-12-29T03:31:04.046Z,5.5
2015-12-29T03:32:03.534Z,5.5
2015-12-29T03:33:03.270Z,5.5
2015-12-29T03:34:03.007Z,5.5
2015-12-29T03:35:02.760Z,5.5
2015-12-29T03:36:02.497Z,5.5
2015-12-29T03:37:02.297Z,5.5
2015-12-29T03:38:04.018Z,5.5
2015-12-29T03:39:03.756Z,5.5
2015-12-29T03:40:03.508Z,5.5
2015-12-29T03:41:03.245Z,5.5
2015-12-29T03:42:02.982Z,5.5
2015-12-29T03:43:02.719Z,5.5
2015-12-29T03:44:02.456Z,5.5
2015-12-29T03:45:02.194Z,5.5
2015-12-29T03:46:01.947Z,5.5
2015-12-29T03:47:01.731Z,5.5
2015-12-29T03:48:03.468Z,5.5
2015-12-29T03:49:03.470Z,5.5
2015-12-29T03:50:03.458Z,5.5
2015-12-29T03:51:03.461Z,5.5
2015-12-29T03:52:03.713Z,5.5
2015-12-29T03:53:03.966Z,5.5
2015-12-29T03:54:04.219Z,5.5
2015-12-29T03:55:04.471Z,5.5
2015-12-29T03:56:04.739Z,5.5
2015-12-29T03:57:05.304Z,5.5
2015-12-29T03:58:07.041Z,5.5
2015-12-29T03:59:07.794Z,5.5
2015-12-29T04:00:08.563Z,5.4
2015-12-29T04:02:10.099Z,5.4
2015-12-29T04:03:11.118Z,5.4
2015-12-29T04:04:11.871Z,5.4
2015-12-29T04:05:12.889Z,5.4
2015-12-29T04:06:13.907Z,5.4
2015-12-29T04:07:14.988Z,5.4
2015-12-29T04:08:16.725Z,5.4
2015-12-29T04:09:18.009Z,5.4
2015-12-29T04:10:19.027Z,5.4
2015-12-29T04:11:20.046Z,5.4
2015-12-29T04:13:22.349Z,5.4
2015-12-29T04:14:23.632Z,5.4
2015-12-29T04:15:24.916Z,5.4
2015-12-29T04:16:26.185Z,5.4
2015-12-29T04:17:27.516Z,5.4
2015-12-29T04:18:29.252Z,5.4
2015-12-29T04:19:30.537Z,5.4
2015-12-29T04:20:31.804Z,5.4
2015-12-29T04:21:33.089Z,5.4
2015-12-29T04:22:34.374Z,5.4
2015-12-29T04:23:35.641Z,5.4
2015-12-29T04:24:36.926Z,5.4
2015-12-29T04:25:38.193Z,5.4
2015-12-29T04:26:39.212Z,5.4
2015-12-29T04:28:42.030Z,5.4
2015-12-29T04:29:43.048Z,5.4
2015-12-29T04:30:44.332Z,5.4
2015-12-29T04:31:45.351Z,5.4
2015-12-29T04:32:46.368Z,5.4
2015-12-29T04:33:47.653Z,5.4
2015-12-29T04:34:48.921Z,5.4
2015-12-29T04:35:49.940Z,5.3
2015-12-29T04:36:51.224Z,5.3
2015-12-29T04:37:52.320Z,5.4
2015-12-29T04:38:54.057Z,5.4
2015-12-29T04:39:54.810Z,5.4
2015-12-29T04:41:56.348Z,5.4
2015-12-29T04:42:57.114Z,5.4
2015-12-29T04:43:57.867Z,5.4
2015-12-29T04:44:58.636Z,5.4
2015-12-29T04:45:59.420Z,5.4
2015-12-29T04:47:00.172Z,5.4
2015-12-29T04:48:00.988Z,5.4
2015-12-29T04:49:02.726Z,5.4
2015-12-29T04:50:03.494Z,5.4
2015-12-29T04:51:04.247Z,5.4
2015-12-29T04:52:05.014Z,5.4
2015-12-29T04:53:05.783Z,5.4
2015-12-29T04:54:06.551Z,5.4
2015-12-29T04:55:07.304Z,5.4
2015-12-29T04:56:07.557Z,5.4
2015-12-29T04:57:07.559Z,5.4
2015-12-29T04:58:07.609Z,5.5
2015-12-29T04:59:09.347Z,5.5
2015-12-29T05:00:09.599Z,5.5
2015-12-29T05:01:09.852Z,5.4
2015-12-29T05:02:10.104Z,5.5
2015-12-29T05:03:10.342Z,5.4
2015-12-29T05:04:10.610Z,5.4
2015-12-29T05:05:10.863Z,5.4
2015-12-29T05:06:11.115Z,5.5
2015-12-29T05:07:11.384Z,5.4
2015-12-29T05:08:11.668Z,5.4
2015-12-29T05:09:13.405Z,5.4
2015-12-29T05:10:13.391Z,5.4
2015-12-29T05:11:13.144Z,5.4
2015-12-29T05:12:12.882Z,5.4
2015-12-29T05:13:12.353Z,5.5
2015-12-29T05:14:11.588Z,5.5
2015-12-29T05:15:11.075Z,5.5
2015-12-29T05:16:10.296Z,5.4
2015-12-29T05:17:09.518Z,5.4
2015-12-29T05:18:08.801Z,5.5
2015-12-29T05:19:10.539Z,5.5
2015-12-29T05:20:09.777Z,5.4
2015-12-29T05:21:08.997Z,5.4
2015-12-29T05:22:08.219Z,5.4
2015-12-29T05:23:07.456Z,5.4
2015-12-29T05:24:06.677Z,5.4
2015-12-29T05:25:05.899Z,5.4
2015-12-29T05:26:05.121Z,5.4
2015-12-29T05:27:03.842Z,5.4
2015-12-29T05:28:02.610Z,5.4
2015-12-29T05:29:04.348Z,5.4
2015-12-29T05:30:03.069Z,5.4
2015-12-29T05:31:02.024Z,5.4
2015-12-29T05:32:00.746Z,5.4
2015-12-29T05:32:59.467Z,5.4
2015-12-29T05:33:58.440Z,5.4
2015-12-29T05:34:57.410Z,5.4
2015-12-29T05:36:55.354Z,5.4
2015-12-29T05:37:54.372Z,5.4
2015-12-29T05:38:56.109Z,5.4
2015-12-29T05:39:54.831Z,5.4
2015-12-29T05:40:53.536Z,5.4
2015-12-29T05:41:52.259Z,5.4
2015-12-29T05:42:51.229Z,5.4
2015-12-29T05:43:50.200Z,5.4
2015-12-29T05:44:49.172Z,5.4
2015-12-29T05:45:48.128Z,5.3
2015-12-29T05:46:47.115Z,5.4
2015-12-29T05:47:46.384Z,5.3
2015-12-29T05:48:48.137Z,5.3
2015-12-29T05:49:47.093Z,5.3
2015-12-29T05:50:46.062Z,5.3
2015-12-29T05:51:45.033Z,5.3
2015-12-29T05:52:44.254Z,5.3
2015-12-29T05:53:43.225Z,5.3
2015-12-29T05:54:42.197Z,5.3
2015-12-29T05:55:40.903Z,5.3
2015-12-29T05:56:39.624Z,5.3
2015-12-29T05:57:38.393Z,5.3
2015-12-29T05:58:40.130Z,5.3
2015-12-29T05:59:39.101Z,5.3
2015-12-29T06:00:37.838Z,5.3
2015-12-29T06:01:36.528Z,5.3
2015-12-29T06:02:35.234Z,5.3
2015-12-29T06:03:33.956Z,5.3
2015-12-29T06:04:32.928Z,5.3
2015-12-29T06:05:32.164Z,5.3
2015-12-29T06:06:31.386Z,5.3
2015-12-29T06:07:30.671Z,5.3
2015-12-29T06:08:32.392Z,5.3
2015-12-29T06:09:31.364Z,5.3
2015-12-29T06:10:30.336Z,5.3
2015-12-29T06:11:29.306Z,5.3
2015-12-29T06:12:28.278Z,5.3
2015-12-29T06:13:27.234Z,5.3
2015-12-29T06:14:26.205Z,5.3
2015-12-29T06:15:25.174Z,5.3
2015-12-29T06:16:24.145Z,5.3
2015-12-29T06:17:23.176Z,5.3
2015-12-29T06:18:24.902Z,5.3
2015-12-29T06:19:24.113Z,5.3
2015-12-29T06:20:23.338Z,5.3
2015-12-29T06:21:22.549Z,5.3
2015-12-29T06:22:21.763Z,5.2
2015-12-29T06:23:20.996Z,5.3
2015-12-29T06:24:20.214Z,5.3
2015-12-29T06:25:19.432Z,5.2
2015-12-29T06:26:18.664Z,5.3
2015-12-29T06:27:17.946Z,5.2
2015-12-29T06:28:19.683Z,5.2
2015-12-29T06:29:18.902Z,5.2
2015-12-29T06:30:18.122Z,5.2
2015-12-29T06:31:17.358Z,5.2
2015-12-29T06:32:16.579Z,5.2
2015-12-29T06:33:15.801Z,5.2
2015-12-29T06:34:15.037Z,5.2
2015-12-29T06:35:14.259Z,5.2
2015-12-29T06:36:13.745Z,5.2
2015-12-29T06:37:13.029Z,5.2
2015-12-29T06:38:14.796Z,5.1
2015-12-29T06:39:13.987Z,5.1
2015-12-29T06:40:13.208Z,5.1
2015-12-29T06:41:12.444Z,5
2015-12-29T06:42:11.932Z,4.9
2015-12-29T06:43:11.670Z,4.9
2015-12-29T06:44:11.406Z,4.9
2015-12-29T06:45:11.409Z,4.9
2015-12-29T06:46:11.428Z,4.8
2015-12-29T06:47:11.727Z,4.8
2015-12-29T06:48:13.464Z,4.7
2015-12-29T06:49:13.967Z,4.6
2015-12-29T06:50:14.735Z,4.5
2015-12-29T06:51:15.488Z,4.5
2015-12-29T06:52:16.772Z,4.5
2015-12-29T06:53:18.306Z,4.4
2015-12-29T06:54:20.105Z,4.4
2015-12-29T06:55:21.889Z,4.4
2015-12-29T06:56:23.689Z,4.3
2015-12-29T06:57:26.050Z,4.2
2015-12-29T06:58:27.789Z,4.1
2015-12-29T06:59:30.088Z,4.1
2015-12-29T07:00:28.541Z,4.1
2015-12-29T07:01:27.247Z,3.9
2015-12-29T07:02:25.969Z,3.9
2015-12-29T07:03:24.955Z,3.9
2015-12-29T07:04:24.177Z,3.7
2015-12-29T07:05:23.399Z,3.7
2015-12-29T07:06:22.869Z,3.7
2015-12-29T07:07:22.420Z,3.7
2015-12-29T07:08:24.158Z,3.6
2015-12-29T07:09:23.894Z,3.5
2015-12-29T07:11:23.383Z,3.4
2015-12-29T07:12:23.636Z,3.4
2015-12-29T07:13:23.905Z,3.4
2015-12-29T07:14:24.141Z,3.3
2015-12-29T07:15:24.911Z,3.3
2015-12-29T07:16:25.444Z,3.3
2015-12-29T07:17:26.260Z,3.3
2015-12-29T07:18:27.996Z,3.2
2015-12-29T07:19:28.765Z,3.2
2015-12-29T07:20:29.550Z,3.2
2015-12-29T07:21:30.818Z,3.1
2015-12-29T07:22:31.585Z,3.1
2015-12-29T07:23:32.369Z,3
2015-12-29T07:24:33.638Z,3.1
2015-12-29T07:25:34.938Z,3
2015-12-29T07:27:37.552Z,3
2015-12-29T07:28:39.290Z,3
2015-12-29T07:29:40.574Z,3
2015-12-29T07:30:41.858Z,3
2015-12-29T07:31:43.391Z,2.9
2015-12-29T07:32:44.941Z,2.9
2015-12-29T07:33:46.725Z,2.9
2015-12-29T07:34:48.274Z,2.9
2015-12-29T07:35:50.059Z,2.9
2015-12-29T07:36:51.858Z,2.9
2015-12-29T07:37:53.705Z,2.9
2015-12-29T07:38:55.442Z,2.9
2015-12-29T07:39:56.992Z,2.9
2015-12-29T07:40:58.776Z,2.9
2015-12-29T07:42:00.575Z,2.9
2015-12-29T07:43:02.375Z,2.9
2015-12-29T07:44:04.159Z,2.9
2015-12-29T07:45:05.958Z,2.9
2015-12-29T07:46:07.758Z,2.8
2015-12-29T07:47:09.556Z,2.9
2015-12-29T07:48:11.403Z,2.8
2015-12-29T07:49:13.157Z,2.8
2015-12-29T07:50:14.940Z,2.8
2015-12-29T07:51:16.725Z,2.9
2015-12-29T07:52:18.775Z,2.9
2015-12-29T07:53:20.839Z,2.9
2015-12-29T07:54:22.639Z,2.9
2015-12-29T07:55:24.438Z,2.9
2015-12-29T07:56:26.225Z,2.9
2015-12-29T07:57:28.025Z,2.9
2015-12-29T07:58:29.887Z,2.9
2015-12-29T07:59:31.624Z,3
2015-12-29T08:00:33.424Z,3
2015-12-29T08:01:34.958Z,2.9
2015-12-29T08:02:36.491Z,3
2015-12-29T08:03:38.042Z,2.9
2015-12-29T08:04:39.575Z,2.9
2015-12-29T08:05:41.375Z,3
2015-12-29T08:06:42.925Z,3
2015-12-29T08:07:44.458Z,3
2015-12-29T08:08:45.789Z,3
2015-12-29T08:09:47.526Z,3.1
2015-12-29T08:10:48.811Z,3.1
2015-12-29T08:11:50.094Z,3.1
2015-12-29T08:12:51.377Z,3.2
2015-12-29T08:13:52.662Z,3.3
2015-12-29T08:14:53.680Z,3.4
2015-12-29T08:15:54.449Z,3.5
2015-12-29T08:16:54.968Z,3.7
2015-12-29T08:17:55.220Z,3.7
2015-12-29T08:18:55.285Z,3.8
2015-12-29T08:19:57.022Z,3.9
2015-12-29T08:20:56.791Z,4
2015-12-29T08:21:56.012Z,4.1
2015-12-29T08:22:54.734Z,4.1
2015-12-29T08:23:53.440Z,4.2
2015-12-29T08:24:52.160Z,4.3
2015-12-29T08:26:49.335Z,4.5
2015-12-29T08:27:51.651Z,4.5
2015-12-29T08:28:54.015Z,4.7
2015-12-29T08:29:55.738Z,4.9
2015-12-29T08:30:57.037Z,4.9
2015-12-29T08:31:57.554Z,4.9
2015-12-29T08:32:58.074Z,5
2015-12-29T08:33:58.842Z,4.9
2015-12-29T08:34:59.079Z,5
2015-12-29T08:35:59.331Z,5.2
2015-12-29T08:36:59.584Z,5.3
2015-12-29T08:37:59.337Z,5.5
2015-12-29T08:38:58.868Z,5.5
2015-12-29T08:40:00.609Z,5.7
2015-12-29T08:40:59.843Z,6
2015-12-29T08:41:58.798Z,6.2
2015-12-29T08:42:57.536Z,6.6
2015-12-29T08:43:55.975Z,7.2
2015-12-29T08:44:57.759Z,7.6
2015-12-29T08:45:57.512Z,7.7
2015-12-29T08:46:57.264Z,7.9
2015-12-29T08:47:56.767Z,8.2
2015-12-29T08:48:55.270Z,8.3
2015-12-29T08:49:57.008Z,8.2
2015-12-29T08:50:58.025Z,8.1
2015-12-29T08:51:59.560Z,8
2015-12-29T08:53:01.110Z,8.1
2015-12-29T08:54:02.378Z,8
2015-12-29T08:55:03.661Z,8
2015-12-29T08:56:04.915Z,8.1
2015-12-29T08:57:06.480Z,8.4
2015-12-29T08:58:07.233Z,8.7
2015-12-29T08:59:08.048Z,9
2015-12-29T09:00:09.770Z,9.3
2015-12-29T09:01:09.242Z,9.6
2015-12-29T09:02:08.228Z,9.6
2015-12-29T09:03:10.278Z,9.6
2015-12-29T09:04:08.983Z,9.6
2015-12-29T09:05:11.284Z,9.7
2015-12-29T09:06:13.583Z,9.7
2015-12-29T09:07:12.039Z,10.2
2015-12-29T09:08:10.480Z,10.4
2015-12-29T09:09:11.311Z,10.2
2015-12-29T09:10:13.047Z,10.5
2015-12-29T09:11:14.299Z,10.9
2015-12-29T09:12:14.833Z,11.2
2015-12-29T09:13:15.055Z,11.5
2015-12-29T09:14:14.527Z,11.3
2015-12-29T09:15:13.499Z,10.9
2015-12-29T09:16:12.736Z,10.5
2015-12-29T09:17:12.723Z,10.5
2015-12-29T09:18:12.960Z,10.5
2015-12-29T09:19:13.509Z,10.6
2015-12-29T09:20:15.246Z,10.6
2015-12-29T09:21:15.249Z,10.5
2015-12-29T09:22:15.486Z,10.5
2015-12-29T09:23:15.724Z,10.5
2015-12-29T09:24:15.460Z,10.5
2015-12-29T09:25:15.682Z,10.6
2015-12-29T09:26:16.185Z,10.9
2015-12-29T09:27:15.907Z,10.9
2015-12-29T09:28:15.378Z,11
2015-12-29T09:29:14.662Z,10.9
2015-12-29T09:30:16.383Z,10.7
2015-12-29T09:31:16.105Z,10.7
2015-12-29T09:32:15.576Z,10.6
2015-12-29T09:33:15.313Z,10.6
2015-12-29T09:34:15.034Z,10.8
2015-12-29T09:35:14.507Z,10.6
2015-12-29T09:36:13.728Z,10.7
2015-12-29T09:37:13.197Z,11.2
2015-12-29T09:38:12.652Z,11.6
2015-12-29T09:39:11.654Z,11.6
2015-12-29T09:40:13.392Z,11.4
2015-12-29T09:41:15.442Z,11.4
2015-12-29T09:42:14.116Z,11.7
2015-12-29T09:43:16.434Z,11.7
2015-12-29T09:44:18.203Z,11.3
2015-12-29T09:45:20.237Z,10.5
2015-12-29T09:46:18.958Z,10.1
2015-12-29T09:47:18.945Z,10.1
2015-12-29T09:48:18.664Z,9.6
2015-12-29T09:49:18.948Z,9.3
2015-12-29T09:50:20.672Z,9.3
2015-12-29T09:51:21.940Z,9.1
2015-12-29T09:52:23.475Z,8.8
2015-12-29T09:53:25.774Z,8.7
2015-12-29T09:54:24.462Z,8.6
2015-12-29T09:55:23.433Z,8.4
2015-12-29T09:56:22.639Z,8.4
2015-12-29T09:57:22.111Z,8.3
2015-12-29T09:58:21.332Z,8.4
2015-12-29T09:59:20.851Z,8.5
2015-12-29T10:00:22.572Z,8.6
2015-12-29T10:01:21.528Z,8.5
2015-12-29T10:02:20.484Z,8.5
2015-12-29T10:03:19.455Z,8.5
2015-12-29T10:04:18.411Z,8.5
2015-12-29T10:05:17.367Z,8.3
2015-12-29T10:06:16.572Z,8.3
2015-12-29T10:07:15.794Z,8.3
2015-12-29T10:08:15.281Z,8.2
2015-12-29T10:09:14.659Z,8.1
2015-12-29T10:10:16.255Z,8
2015-12-29T10:11:15.727Z,7.6
2015-12-29T10:12:15.714Z,7.3
2015-12-29T10:13:16.217Z,7.1
2015-12-29T10:14:17.485Z,7.1
2015-12-29T10:15:18.738Z,6.9
2015-12-29T10:16:20.522Z,6.8
2015-12-29T10:17:22.806Z,6.7
2015-12-29T10:18:25.105Z,6.5
2015-12-29T10:19:23.625Z,6.5
2015-12-29T10:20:25.345Z,6.5
2015-12-29T10:21:24.036Z,6.4
2015-12-29T10:22:22.757Z,6.3
2015-12-29T10:23:21.713Z,6.4
2015-12-29T10:24:20.935Z,6.3
2015-12-29T10:25:20.141Z,6.5
2015-12-29T10:26:19.361Z,6.5
2015-12-29T10:27:18.318Z,6.5
2015-12-29T10:28:17.274Z,6.5
2015-12-29T10:29:16.058Z,6.6
2015-12-29T10:30:17.763Z,6.6
2015-12-29T10:31:16.469Z,6.5
2015-12-29T10:32:15.175Z,6.5
2015-12-29T10:33:13.880Z,6.6
2015-12-29T10:34:12.584Z,6.6
2015-12-29T10:35:11.290Z,6.6
2015-12-29T10:36:09.746Z,6.6
2015-12-29T10:37:08.186Z,6.5
2015-12-29T10:38:06.891Z,6.4
2015-12-29T10:39:05.927Z,6.2
2015-12-29T10:40:07.647Z,6.1
2015-12-29T10:41:07.118Z,6
2015-12-29T10:42:06.560Z,5.9
2015-12-29T10:43:06.563Z,5.8
2015-12-29T10:44:06.799Z,5.7
2015-12-29T10:45:07.052Z,5.7
2015-12-29T10:46:07.555Z,5.7
2015-12-29T10:47:08.058Z,5.7
2015-12-29T10:48:08.810Z,5.7
2015-12-29T10:50:11.347Z,5.7
2015-12-29T10:51:11.849Z,5.6
2015-12-29T10:52:12.618Z,5.6
2015-12-29T10:53:13.370Z,5.6
2015-12-29T10:54:14.390Z,5.5
2015-12-29T10:55:15.408Z,5.6
2015-12-29T10:56:16.676Z,5.6
2015-12-29T10:57:17.943Z,5.6
2015-12-29T10:58:19.212Z,5.6
2015-12-29T10:59:20.543Z,5.6
2015-12-29T11:00:22.265Z,5.6
2015-12-29T11:01:23.533Z,5.6
2015-12-29T11:02:24.817Z,5.6
2015-12-29T11:03:25.835Z,5.5
2015-12-29T11:04:27.104Z,5.5
2015-12-29T11:05:28.373Z,5.5
2015-12-29T11:06:29.641Z,5.5
2015-12-29T11:07:30.909Z,5.4
2015-12-29T11:08:32.193Z,5.4
2015-12-29T11:09:33.774Z,5.4
2015-12-29T11:10:35.495Z,5.4
2015-12-29T11:11:36.765Z,5.5
2015-12-29T11:12:38.032Z,5.5
2015-12-29T11:13:39.317Z,5.4
2015-12-29T11:14:40.851Z,5.4
2015-12-29T11:15:42.369Z,5.4
2015-12-29T11:16:44.153Z,5.4
2015-12-29T11:17:45.687Z,5.4
2015-12-29T11:18:47.221Z,5.4
2015-12-29T11:19:48.787Z,5.3
2015-12-29T11:20:50.523Z,5.3
2015-12-29T11:21:52.057Z,5.3
2015-12-29T11:22:53.591Z,5.4
2015-12-29T11:23:55.110Z,5.3
2015-12-29T11:24:56.909Z,5.3
2015-12-29T11:25:58.428Z,5.3
2015-12-29T11:26:59.962Z,5.3
2015-12-29T11:28:01.496Z,5.4
2015-12-29T11:29:03.015Z,5.4
2015-12-29T11:30:04.595Z,5.3
2015-12-29T11:31:06.332Z,5.3
2015-12-29T11:32:08.117Z,5.3
2015-12-29T11:33:09.901Z,5.4
2015-12-29T11:34:11.434Z,5.5
2015-12-29T11:35:12.968Z,5.4
2015-12-29T11:36:14.503Z,5.4
2015-12-29T11:37:16.020Z,5.4
2015-12-29T11:38:17.554Z,5.5
2015-12-29T11:39:19.088Z,5.5
2015-12-29T11:40:20.419Z,5.5
2015-12-29T11:41:22.141Z,5.5
2015-12-29T11:42:23.425Z,5.5
2015-12-29T11:43:24.692Z,5.5
2015-12-29T11:44:25.962Z,5.5
2015-12-29T11:45:26.980Z,5.5
2015-12-29T11:46:27.998Z,5.5
2015-12-29T11:47:29.016Z,5.5
2015-12-29T11:48:30.035Z,5.5
2015-12-29T11:49:31.053Z,5.6
2015-12-29T11:50:31.869Z,5.6
2015-12-29T11:51:33.606Z,5.6
2015-12-29T11:52:34.358Z,5.6
2015-12-29T11:53:35.127Z,5.6
2015-12-29T11:54:35.880Z,5.7
2015-12-29T11:55:36.632Z,5.7
2015-12-29T11:56:37.150Z,5.6
2015-12-29T11:57:37.653Z,5.6
2015-12-29T11:58:38.422Z,5.6
2015-12-29T11:59:39.174Z,5.6
2015-12-29T12:00:39.989Z,5.6
2015-12-29T12:01:41.715Z,5.7
2015-12-29T12:02:42.484Z,5.7
2015-12-29T12:03:43.236Z,5.7
2015-12-29T12:04:44.004Z,5.7
2015-12-29T12:05:44.756Z,5.7
2015-12-29T12:06:45.526Z,5.7
2015-12-29T12:07:46.278Z,5.7
2015-12-29T12:08:47.047Z,5.7
2015-12-29T12:09:47.800Z,5.7
2015-12-29T12:10:48.365Z,5.7
2015-12-29T12:11:50.102Z,5.7
2015-12-29T12:12:50.604Z,5.7
2015-12-29T12:13:51.107Z,5.7
2015-12-29T12:14:51.610Z,5.7
2015-12-29T12:15:52.113Z,5.7
2015-12-29T12:16:52.615Z,5.7
2015-12-29T12:17:53.134Z,5.8
2015-12-29T12:18:53.636Z,5.8
2015-12-29T12:19:53.874Z,5.8
2015-12-29T12:20:54.439Z,5.7
2015-12-29T12:21:56.176Z,5.8
2015-12-29T12:22:56.414Z,5.8
2015-12-29T12:23:56.666Z,5.8
2015-12-29T12:24:56.919Z,5.8
2015-12-29T12:25:57.155Z,5.8
2015-12-29T12:26:57.408Z,5.8
2015-12-29T12:27:57.661Z,5.8
2015-12-29T12:28:57.914Z,5.8
2015-12-29T12:29:58.167Z,5.9
2015-12-29T12:30:58.466Z,5.9
2015-12-29T12:32:00.189Z,5.9
2015-12-29T12:33:00.441Z,5.8
2015-12-29T12:34:00.693Z,5.8
2015-12-29T12:35:00.946Z,5.9
2015-12-29T12:36:01.183Z,5.9
2015-12-29T12:37:01.436Z,5.9
2015-12-29T12:38:01.689Z,5.9
2015-12-29T12:39:01.941Z,5.9
2015-12-29T12:40:02.177Z,5.9
2015-12-29T12:41:02.493Z,5.9
2015-12-29T12:42:04.215Z,5.9
2015-12-29T12:43:04.468Z,5.8
2015-12-29T12:44:04.721Z,5.8
2015-12-29T12:45:05.224Z,5.8
2015-12-29T12:46:05.757Z,5.8
2015-12-29T12:47:06.244Z,5.8
2015-12-29T12:48:07.013Z,5.8
2015-12-29T12:49:07.499Z,5.8
2015-12-29T12:50:08.003Z,5.8
2015-12-29T12:51:08.583Z,5.8
2015-12-29T12:52:10.305Z,5.8
2015-12-29T12:53:10.807Z,5.8
2015-12-29T12:54:11.060Z,5.9
2015-12-29T12:55:11.313Z,5.9
2015-12-29T12:56:11.550Z,5.9
2015-12-29T12:57:11.803Z,5.9
2015-12-29T12:58:12.056Z,5.8
2015-12-29T12:59:12.293Z,5.8
2015-12-29T13:00:12.562Z,5.9
2015-12-29T13:01:13.110Z,5.8
2015-12-29T13:02:14.847Z,5.8
2015-12-29T13:03:15.350Z,5.8
2015-12-29T13:04:15.854Z,5.8
2015-12-29T13:05:16.356Z,5.8
2015-12-29T13:06:16.608Z,5.8
2015-12-29T13:07:16.846Z,5.8
2015-12-29T13:08:17.098Z,5.7
2015-12-29T13:09:17.617Z,5.7
2015-12-29T13:10:18.120Z,5.7
2015-12-29T13:11:18.684Z,5.7
2015-12-29T13:12:20.406Z,5.7
2015-12-29T13:13:21.175Z,5.6
2015-12-29T13:14:21.943Z,5.7
2015-12-29T13:15:22.695Z,5.7
2015-12-29T13:16:23.464Z,5.7
2015-12-29T13:17:24.233Z,5.7
2015-12-29T13:18:24.985Z,5.7
2015-12-29T13:19:25.753Z,5.7
2015-12-29T13:20:26.522Z,5.6
2015-12-29T13:22:29.075Z,5.6
2015-12-29T13:23:30.092Z,5.6
2015-12-29T13:24:31.361Z,5.5
2015-12-29T13:25:32.629Z,5.5
2015-12-29T13:26:33.913Z,5.4
2015-12-29T13:27:35.181Z,5.4
2015-12-29T13:28:36.716Z,5.5
2015-12-29T13:30:39.268Z,5.5
2015-12-29T13:31:40.599Z,5.5
2015-12-29T13:32:42.319Z,5.5
2015-12-29T13:33:43.604Z,5.5
2015-12-29T13:34:44.872Z,5.5
2015-12-29T13:36:47.425Z,5.5
2015-12-29T13:37:48.693Z,5.4
2015-12-29T13:38:49.977Z,5.4
2015-12-29T13:39:51.496Z,5.3
2015-12-29T13:40:53.030Z,5.3
2015-12-29T13:41:54.877Z,5.3
2015-12-29T13:42:56.613Z,5.3
2015-12-29T13:43:58.397Z,5.3
2015-12-29T13:44:59.931Z,5.3
2015-12-29T13:46:01.465Z,5.3
2015-12-29T13:47:02.999Z,5.3
2015-12-29T13:48:04.783Z,5.3
2015-12-29T13:49:06.583Z,5.3
2015-12-29T13:50:08.366Z,5.3
2015-12-29T13:51:10.151Z,5.2
2015-12-29T13:52:11.997Z,5.3
2015-12-29T13:53:13.734Z,5.2
2015-12-29T13:54:15.518Z,5.2
2015-12-29T13:55:17.568Z,5.1
2015-12-29T13:56:19.867Z,5.2
2015-12-29T13:57:22.167Z,5.2
2015-12-29T13:58:24.217Z,5.1
2015-12-29T13:59:26.515Z,5
2015-12-29T14:00:28.815Z,5
2015-12-29T14:01:27.256Z,5.1
2015-12-29T14:02:25.790Z,5.1
2015-12-29T14:03:27.542Z,5
2015-12-29T14:04:29.811Z,5
2015-12-29T14:05:28.267Z,5
2015-12-29T14:06:26.973Z,5
2015-12-29T14:07:25.428Z,4.9
2015-12-29T14:08:23.884Z,4.9